createdAt,value
2023-02-05T00:00:01.076Z,100662.44
2023-02-05T00:02:29.252Z,100665.55
2023-02-05T00:04:57.130Z,100665.36
2023-02-05T00:07:25.025Z,100670.03
2023-02-05T00:09:52.922Z,100670.02
2023-02-05T00:12:20.914Z,100673.45
2023-02-05T00:14:49.134Z,100671.91
2023-02-05T00:17:17.073Z,100676.39
2023-02-05T00:19:44.862Z,100670.88
2023-02-05T00:22:12.638Z,100671.91
2023-02-05T00:24:40.693Z,100670.67
2023-02-05T00:27:10.269Z,100669.60
2023-02-05T00:29:38.348Z,100670.24
2023-02-05T00:32:06.437Z,100670.73
2023-02-05T00:34:35.368Z,100671.23
2023-02-05T00:37:03.172Z,100670.70
2023-02-05T00:39:31.282Z,100672.95
2023-02-05T00:41:59.384Z,100674.84
2023-02-05T00:44:27.696Z,100674.52
2023-02-05T00:46:55.665Z,100679.19
2023-02-05T00:49:23.698Z,100679.20
2023-02-05T00:51:52.478Z,100677.15
2023-02-05T00:54:20.458Z,100674.40
2023-02-05T00:56:48.401Z,100671.98
2023-02-05T00:59:16.718Z,100673.68
2023-02-05T01:01:44.697Z,100670.74
2023-02-05T01:04:12.716Z,100668.82
2023-02-05T01:06:41.568Z,100671.91
2023-02-05T01:09:10.530Z,100673.10
2023-02-05T01:11:38.641Z,100666.73
2023-02-05T01:14:07.431Z,100669.66
2023-02-05T01:16:35.436Z,100668.97
2023-02-05T01:19:03.956Z,100668.09
2023-02-05T01:21:31.870Z,100667.92
2023-02-05T01:24:01.637Z,100667.95
2023-02-05T01:26:29.758Z,100666.75
2023-02-05T01:28:58.135Z,100669.33
2023-02-05T01:31:28.285Z,100669.66
2023-02-05T01:33:56.480Z,100672.94
2023-02-05T01:36:24.508Z,100674.13
2023-02-05T01:38:54.355Z,100675.31
2023-02-05T01:41:24.280Z,100678.23
2023-02-05T01:44:14.200Z,100679.95
2023-02-05T01:46:43.142Z,100673.92
2023-02-05T01:49:16.044Z,100678.60
2023-02-05T01:51:43.876Z,100678.45
2023-02-05T01:54:12.248Z,100678.80
2023-02-05T01:56:46.745Z,100681.74
2023-02-05T01:59:17.542Z,100682.79
2023-02-05T02:01:46.605Z,100683.48
2023-02-05T02:04:17.037Z,100686.58
2023-02-05T02:06:45.250Z,100686.89
2023-02-05T02:09:13.727Z,100683.80
2023-02-05T02:11:42.135Z,100681.68
2023-02-05T02:14:10.316Z,100680.96
2023-02-05T02:16:38.406Z,100677.48
2023-02-05T02:19:10.995Z,100673.86
2023-02-05T02:21:56.111Z,100671.13
2023-02-05T02:24:35.396Z,100669.59
2023-02-05T02:27:09.402Z,100674.10
2023-02-05T02:29:41.674Z,100669.83
2023-02-05T02:32:16.118Z,100668.95
2023-02-05T02:34:47.329Z,100673.62
2023-02-05T02:37:21.317Z,100676.91
2023-02-05T02:40:16.184Z,100674.33
2023-02-05T02:42:59.010Z,100674.66
2023-02-05T02:45:29.496Z,100670.17
2023-02-05T02:47:58.287Z,100677.76
2023-02-05T02:50:32.854Z,100678.77
2023-02-05T02:53:09.975Z,100676.35
2023-02-05T02:55:39.470Z,100673.92
2023-02-05T02:58:09.614Z,100681.70
2023-02-05T03:00:38.060Z,100684.46
2023-02-05T03:03:07.047Z,100686.89
2023-02-05T03:05:35.934Z,100690.68
2023-02-05T03:08:10.626Z,100694.14
2023-02-05T03:10:44.736Z,100691.39
2023-02-05T03:13:19.552Z,100692.61
2023-02-05T03:15:51.609Z,100688.45
2023-02-05T03:18:20.024Z,100695.69
2023-02-05T03:20:57.215Z,100693.25
2023-02-05T03:23:26.602Z,100692.88
2023-02-05T03:25:55.616Z,100686.65
2023-02-05T03:28:28.821Z,100689.41
2023-02-05T03:31:22.002Z,100688.38
2023-02-05T03:33:49.979Z,100688.38
2023-02-05T03:36:41.338Z,100693.05
2023-02-05T03:39:34.560Z,100690.48
2023-02-05T03:42:06.557Z,100693.27
2023-02-05T03:44:51.657Z,100691.73
2023-02-05T03:48:10.040Z,100696.05
2023-02-05T03:50:41.685Z,100695.35
2023-02-05T03:53:41.558Z,100694.29
2023-02-05T03:56:24.847Z,100694.08
2023-02-05T03:58:55.352Z,100696.27
2023-02-05T04:01:25.377Z,100698.99
2023-02-05T04:03:53.441Z,100699.50
2023-02-05T04:06:22.213Z,100698.10
2023-02-05T04:08:51.471Z,100699.14
2023-02-05T04:11:19.681Z,100704.33
2023-02-05T04:13:48.798Z,100700.39
2023-02-05T04:16:17.191Z,100703.34
2023-02-05T04:18:45.561Z,100707.48
2023-02-05T04:21:13.508Z,100708.37
2023-02-05T04:23:42.500Z,100715.29
2023-02-05T04:26:11.285Z,100714.77
2023-02-05T04:28:46.641Z,100720.27
2023-02-05T04:31:15.095Z,100715.92
2023-02-05T04:33:43.650Z,100713.13
2023-02-05T04:36:14.361Z,100711.04
2023-02-05T04:38:42.490Z,100712.73
2023-02-05T04:41:10.482Z,100714.27
2023-02-05T04:43:38.774Z,100712.36
2023-02-05T04:46:09.904Z,100713.23
2023-02-05T04:48:38.500Z,100716.88
2023-02-05T04:51:10.459Z,100715.52
2023-02-05T04:53:39.519Z,100719.13
2023-02-05T04:56:14.961Z,100719.84
2023-02-05T04:58:43.726Z,100715.70
2023-02-05T05:01:16.683Z,100714.98
2023-02-05T05:03:44.768Z,100717.73
2023-02-05T05:06:12.936Z,100717.38
2023-02-05T05:08:41.051Z,100726.67
2023-02-05T05:11:17.460Z,100729.59
2023-02-05T05:13:45.831Z,100733.71
2023-02-05T05:16:13.850Z,100734.06
2023-02-05T05:18:42.314Z,100732.02
2023-02-05T05:21:10.614Z,100732.89
2023-02-05T05:23:38.811Z,100737.73
2023-02-05T05:26:08.059Z,100737.91
2023-02-05T05:28:36.705Z,100737.58
2023-02-05T05:31:19.701Z,100743.95
2023-02-05T05:33:47.846Z,100738.61
2023-02-05T05:36:16.070Z,100741.88
2023-02-05T05:38:44.239Z,100742.73
2023-02-05T05:41:36.651Z,100740.61
2023-02-05T05:44:04.851Z,100745.23
2023-02-05T05:46:33.063Z,100746.92
2023-02-05T05:49:01.592Z,100751.40
2023-02-05T05:51:30.124Z,100757.42
2023-02-05T05:53:58.027Z,100755.16
2023-02-05T05:56:25.995Z,100759.50
2023-02-05T05:58:53.930Z,100759.67
2023-02-05T06:01:22.959Z,100762.63
2023-02-05T06:03:50.872Z,100762.63
2023-02-05T06:06:18.719Z,100763.15
2023-02-05T06:08:46.659Z,100764.16
2023-02-05T06:11:14.565Z,100767.05
2023-02-05T06:13:44.619Z,100769.77
2023-02-05T06:16:13.313Z,100771.30
2023-02-05T06:18:41.270Z,100777.69
2023-02-05T06:21:11.384Z,100782.50
2023-02-05T06:23:39.309Z,100783.18
2023-02-05T06:26:07.338Z,100784.39
2023-02-05T06:28:35.331Z,100792.69
2023-02-05T06:31:03.541Z,100792.86
2023-02-05T06:33:31.674Z,100793.55
2023-02-05T06:35:59.696Z,100796.84
2023-02-05T06:38:27.696Z,100799.41
2023-02-05T06:40:55.585Z,100804.74
2023-02-05T06:43:23.454Z,100800.73
2023-02-05T06:45:51.539Z,100804.48
2023-02-05T06:48:19.444Z,100802.70
2023-02-05T06:50:47.288Z,100805.23
2023-02-05T06:53:15.152Z,100810.23
2023-02-05T06:55:43.030Z,100811.59
2023-02-05T06:58:11.663Z,100812.94
2023-02-05T07:00:39.490Z,100815.88
2023-02-05T07:03:07.343Z,100817.08
2023-02-05T07:05:35.501Z,100814.81
2023-02-05T07:08:05.413Z,100816.18
2023-02-05T07:10:33.753Z,100816.66
2023-02-05T07:13:01.734Z,100821.27
2023-02-05T07:15:30.317Z,100820.33
2023-02-05T07:17:58.377Z,100826.49
2023-02-05T07:20:26.241Z,100826.95
2023-02-05T07:22:54.015Z,100831.89
2023-02-05T07:25:22.059Z,100837.17
2023-02-05T07:27:50.182Z,100835.91
2023-02-05T07:30:18.630Z,100833.23
2023-02-05T07:32:46.546Z,100831.13
2023-02-05T07:35:14.545Z,100829.16
2023-02-05T07:37:42.750Z,100826.52
2023-02-05T07:40:11.323Z,100827.48
2023-02-05T07:42:39.647Z,100822.42
2023-02-05T07:45:09.940Z,100825.79
2023-02-05T07:47:38.185Z,100827.59
2023-02-05T07:50:06.312Z,100826.59
2023-02-05T07:52:34.564Z,100827.82
2023-02-05T07:55:03.106Z,100831.67
2023-02-05T07:57:31.498Z,100832.95
2023-02-05T07:59:59.288Z,100837.33
2023-02-05T08:02:27.392Z,100837.58
2023-02-05T08:04:55.227Z,100836.79
2023-02-05T08:07:23.029Z,100839.84
2023-02-05T08:09:53.231Z,100841.67
2023-02-05T08:12:21.132Z,100846.83
2023-02-05T08:14:49.012Z,100844.98
2023-02-05T08:17:17.399Z,100846.71
2023-02-05T08:19:45.337Z,100849.62
2023-02-05T08:22:14.099Z,100851.19
2023-02-05T08:24:42.054Z,100851.84
2023-02-05T08:27:10.042Z,100854.36
2023-02-05T08:29:37.916Z,100858.66
2023-02-05T08:32:06.374Z,100859.98
2023-02-05T08:34:34.483Z,100862.05
2023-02-05T08:37:02.388Z,100862.60
2023-02-05T08:39:30.737Z,100864.55
2023-02-05T08:41:58.695Z,100864.41
2023-02-05T08:44:28.085Z,100867.71
2023-02-05T08:46:56.568Z,100870.88
2023-02-05T08:49:24.455Z,100865.20
2023-02-05T08:51:52.404Z,100865.55
2023-02-05T08:54:20.605Z,100867.48
2023-02-05T08:56:50.263Z,100868.49
2023-02-05T08:59:18.575Z,100872.19
2023-02-05T09:01:46.780Z,100872.30
2023-02-05T09:04:16.520Z,100872.38
2023-02-05T09:06:44.663Z,100874.29
2023-02-05T09:09:12.908Z,100878.56
2023-02-05T09:11:41.709Z,100879.96
2023-02-05T09:14:10.031Z,100878.77
2023-02-05T09:16:39.737Z,100875.36
2023-02-05T09:19:08.361Z,100876.12
2023-02-05T09:21:37.101Z,100879.50
2023-02-05T09:24:05.169Z,100874.74
2023-02-05T09:26:34.067Z,100874.19
2023-02-05T09:29:02.323Z,100871.40
2023-02-05T09:31:30.586Z,100866.02
2023-02-05T09:33:58.516Z,100868.83
2023-02-05T09:36:26.415Z,100869.98
2023-02-05T09:39:11.847Z,100869.48
2023-02-05T09:41:54.674Z,100868.54
2023-02-05T09:44:44.647Z,100868.66
2023-02-05T09:47:31.928Z,100868.69
2023-02-05T09:50:14.794Z,100868.92
2023-02-05T09:52:44.995Z,100873.05
2023-02-05T09:55:41.968Z,100867.48
2023-02-05T09:58:31.280Z,100869.84
2023-02-05T10:01:22.613Z,100873.54
2023-02-05T10:04:01.207Z,100873.83
2023-02-05T10:06:41.888Z,100877.19
2023-02-05T10:09:32.979Z,100874.36
2023-02-05T10:12:10.341Z,100881.50
2023-02-05T10:15:06.081Z,100885.01
2023-02-05T10:17:51.438Z,100885.05
2023-02-05T10:20:38.861Z,100891.98
2023-02-05T10:23:14.913Z,100891.91
2023-02-05T10:26:08.024Z,100894.97
2023-02-05T10:28:50.605Z,100896.91
2023-02-05T10:31:36.744Z,100900.15
2023-02-05T10:34:36.493Z,100902.94
2023-02-05T10:39:35.640Z,100907.55
2023-02-05T10:42:09.747Z,100907.95
2023-02-05T10:44:43.763Z,100908.97
2023-02-05T10:47:14.350Z,100907.52
2023-02-05T10:50:01.358Z,100914.33
2023-02-05T10:52:29.900Z,100920.80
2023-02-05T10:55:03.984Z,100922.10
2023-02-05T10:57:36.788Z,100926.92
2023-02-05T11:00:13.687Z,100927.77
2023-02-05T11:02:43.805Z,100927.23
2023-02-05T11:05:37.339Z,100927.02
2023-02-05T11:08:05.275Z,100931.25
2023-02-05T11:10:34.506Z,100931.85
2023-02-05T11:13:05.490Z,100932.52
2023-02-05T11:15:35.556Z,100930.27
2023-02-05T11:18:05.605Z,100930.73
2023-02-05T11:20:35.756Z,100933.94
2023-02-05T11:23:07.261Z,100926.35
2023-02-05T11:25:35.714Z,100928.64
2023-02-05T11:28:04.132Z,100930.52
2023-02-05T11:30:52.177Z,100932.56
2023-02-05T11:33:21.274Z,100939.30
2023-02-05T11:35:56.974Z,100942.59
2023-02-05T11:38:35.334Z,100942.92
2023-02-05T11:41:07.354Z,100936.08
2023-02-05T11:43:36.532Z,100937.55
2023-02-05T11:46:08.193Z,100939.20
2023-02-05T11:48:40.605Z,100937.15
2023-02-05T11:51:11.442Z,100941.23
2023-02-05T11:54:02.564Z,100945.05
2023-02-05T11:56:30.483Z,100945.96
2023-02-05T11:59:21.936Z,100949.02
2023-02-05T12:01:50.370Z,100949.11
2023-02-05T12:04:19.796Z,100952.11
2023-02-05T12:06:52.812Z,100953.93
2023-02-05T12:09:22.993Z,100955.18
2023-02-05T12:12:18.451Z,100955.70
2023-02-05T12:14:54.498Z,100954.11
2023-02-05T12:17:33.230Z,100954.02
2023-02-05T12:20:30.269Z,100956.84
2023-02-05T12:23:26.560Z,100959.83
2023-02-05T12:25:57.670Z,100959.73
2023-02-05T12:28:54.470Z,100962.73
2023-02-05T12:31:59.890Z,100964.41
2023-02-05T12:35:04.970Z,100970.30
2023-02-05T12:38:11.621Z,100973.50
2023-02-05T12:41:25.145Z,100974.04
2023-02-05T12:43:59.432Z,100972.73
2023-02-05T12:46:43.003Z,100974.09
2023-02-05T12:49:21.019Z,100977.77
2023-02-05T12:52:25.087Z,100977.25
2023-02-05T12:55:25.488Z,100973.30
2023-02-05T12:58:05.293Z,100975.83
2023-02-05T13:00:54.726Z,100977.98
2023-02-05T13:03:32.410Z,100976.71
2023-02-05T13:06:25.950Z,100976.97
2023-02-05T13:08:58.637Z,100978.27
2023-02-05T13:11:41.252Z,100980.56
2023-02-05T13:14:20.002Z,100984.70
2023-02-05T13:16:55.250Z,100984.63
2023-02-05T13:19:41.067Z,100986.41
2023-02-05T13:22:47.928Z,100993.05
2023-02-05T13:25:43.556Z,100994.14
2023-02-05T13:28:42.420Z,100999.62
2023-02-05T13:31:41.739Z,101004.09
2023-02-05T13:34:12.529Z,101005.09
2023-02-05T13:37:04.880Z,101007.09
2023-02-05T13:40:01.144Z,101006.52
2023-02-05T13:43:11.950Z,101006.92
2023-02-05T13:46:06.003Z,101006.65
2023-02-05T13:48:55.816Z,101008.41
2023-02-05T13:51:44.315Z,101008.98
2023-02-05T13:54:33.983Z,101013.15
2023-02-05T16:23:59.678Z,101158.01
2023-02-05T16:26:50.500Z,101161.31
2023-02-05T16:29:47.109Z,101166.65
2023-02-05T16:32:38.314Z,101168.30
2023-02-05T16:35:07.859Z,101174.13
2023-02-05T16:37:36.642Z,101175.63
2023-02-05T16:40:06.714Z,101175.21
2023-02-05T16:42:46.163Z,101175.83
2023-02-05T16:45:18.932Z,101178.69
2023-02-05T16:48:20.329Z,101180.86
2023-02-05T16:50:48.606Z,101184.96
2023-02-05T16:53:26.583Z,101186.50
2023-02-05T16:56:09.714Z,101187.90
2023-02-05T16:58:44.574Z,101189.98
2023-02-05T17:01:13.471Z,101193.43
2023-02-05T17:03:48.326Z,101192.92
2023-02-05T17:06:17.047Z,101199.17
2023-02-05T17:08:53.011Z,101200.04
2023-02-05T17:11:38.240Z,101204.17
2023-02-05T17:14:12.396Z,101207.11
2023-02-05T17:16:42.853Z,101206.73
2023-02-05T17:19:24.530Z,101214.67
2023-02-05T17:22:17.391Z,101218.64
2023-02-05T17:24:46.203Z,101220.21
2023-02-05T17:27:38.647Z,101228.38
2023-02-05T17:30:13.970Z,101222.88
2023-02-05T17:32:41.877Z,101225.33
2023-02-05T17:35:13.871Z,101227.09
2023-02-05T17:37:41.787Z,101232.33
2023-02-05T17:40:12.467Z,101234.44
2023-02-05T17:42:40.923Z,101238.96
2023-02-05T17:45:23.394Z,101238.29
2023-02-05T17:47:51.418Z,101239.33
2023-02-05T17:50:19.409Z,101237.04
2023-02-05T17:52:47.472Z,101239.95
2023-02-05T17:55:17.655Z,101244.95
2023-02-05T17:57:45.810Z,101244.94
2023-02-05T18:00:32.665Z,101243.20
2023-02-05T18:03:00.634Z,101246.33
2023-02-05T18:05:28.889Z,101248.76
2023-02-05T18:07:57.951Z,101258.67
2023-02-05T18:10:27.904Z,101261.30
2023-02-05T18:12:57.458Z,101268.77
2023-02-05T18:15:25.651Z,101273.30
2023-02-05T18:17:54.013Z,101275.55
2023-02-05T18:20:22.073Z,101277.81
2023-02-05T18:22:50.177Z,101276.42
2023-02-05T18:25:18.185Z,101280.56
2023-02-05T18:27:48.124Z,101284.53
2023-02-05T18:30:16.293Z,101283.85
2023-02-05T18:32:45.219Z,101289.41
2023-02-05T18:35:14.715Z,101288.91
2023-02-05T18:37:43.442Z,101295.02
2023-02-05T18:40:11.838Z,101295.74
2023-02-05T18:42:41.439Z,101297.16
2023-02-05T18:45:10.021Z,101291.80
2023-02-05T18:47:38.537Z,101294.59
2023-02-05T18:50:08.770Z,101290.61
2023-02-05T18:52:38.519Z,101293.39
2023-02-05T18:55:07.671Z,101293.55
2023-02-05T18:57:35.764Z,101292.33
2023-02-05T19:00:04.159Z,101295.60
2023-02-05T19:02:34.868Z,101297.51
2023-02-05T19:05:04.029Z,101301.82
2023-02-05T19:07:31.944Z,101310.80
2023-02-05T19:10:01.478Z,101314.45
2023-02-05T19:12:31.456Z,101326.59
2023-02-05T19:14:59.579Z,101325.21
2023-02-05T19:17:29.022Z,101324.53
2023-02-05T19:19:57.152Z,101327.30
2023-02-05T19:22:26.250Z,101329.90
2023-02-05T19:24:54.154Z,101335.45
2023-02-05T19:27:23.728Z,101339.10
2023-02-05T19:29:51.697Z,101343.77
2023-02-05T19:32:19.696Z,101345.14
2023-02-05T19:34:47.941Z,101348.08
2023-02-05T19:37:18.743Z,101343.74
2023-02-05T19:39:46.687Z,101347.54
2023-02-05T19:42:15.717Z,101354.64
2023-02-05T19:44:43.727Z,101357.23
2023-02-05T19:47:12.859Z,101358.13
2023-02-05T19:49:40.957Z,101359.86
2023-02-05T19:52:09.908Z,101361.41
2023-02-05T19:54:38.187Z,101362.83
2023-02-05T19:57:06.358Z,101372.20
2023-02-05T19:59:35.038Z,101368.23
2023-02-05T20:02:02.838Z,101376.38
2023-02-05T20:04:30.837Z,101379.67
2023-02-05T20:06:59.452Z,101377.93
2023-02-05T20:09:27.904Z,101377.58
2023-02-05T20:11:56.021Z,101383.10
2023-02-05T20:14:24.689Z,101382.58
2023-02-05T20:16:53.403Z,101385.51
2023-02-05T20:19:21.303Z,101384.46
2023-02-05T20:21:49.358Z,101382.73
2023-02-05T20:24:17.384Z,101384.30
2023-02-05T20:26:47.824Z,101386.39
2023-02-05T20:29:34.932Z,101391.25
2023-02-05T20:32:03.056Z,101395.77
2023-02-05T20:34:32.358Z,101398.55
2023-02-05T20:37:05.920Z,101399.25
2023-02-05T20:39:35.238Z,101402.21
2023-02-05T20:42:03.724Z,101405.66
2023-02-05T20:44:33.815Z,101404.78
2023-02-05T20:47:03.017Z,101408.75
2023-02-05T20:49:31.121Z,101410.80
2023-02-05T20:51:58.944Z,101415.13
2023-02-05T20:54:26.947Z,101417.55
2023-02-05T20:56:59.338Z,101419.80
2023-02-05T20:59:34.464Z,101420.33
2023-02-05T21:02:02.913Z,101427.79
2023-02-05T21:04:31.575Z,101429.88
2023-02-05T21:06:59.684Z,101437.35
2023-02-05T21:09:27.752Z,101441.00
2023-02-05T21:11:55.858Z,101444.30
2023-02-05T21:14:23.841Z,101449.50
2023-02-05T21:16:51.906Z,101446.39
2023-02-05T21:19:20.652Z,101450.36
2023-02-05T21:21:49.920Z,101450.52
2023-02-05T21:24:18.460Z,101448.95
2023-02-05T21:26:47.401Z,101450.67
2023-02-05T21:29:17.726Z,101453.44
2023-02-05T21:31:47.450Z,101454.30
2023-02-05T21:34:21.700Z,101458.45
2023-02-05T21:36:49.982Z,101457.24
2023-02-05T21:39:19.984Z,101460.71
2023-02-05T21:41:48.564Z,101467.65
2023-02-05T21:44:16.648Z,101467.83
2023-02-05T21:46:45.118Z,101472.69
2023-02-05T21:49:13.366Z,101474.23
2023-02-05T21:51:42.441Z,101478.56
2023-02-05T21:54:10.699Z,101479.42
2023-02-05T21:56:40.929Z,101486.16
2023-02-05T21:59:10.103Z,101488.05
2023-02-05T22:01:38.529Z,101490.83
2023-02-05T22:04:10.326Z,101486.66
2023-02-05T22:06:38.374Z,101485.98
2023-02-05T22:09:08.493Z,101487.54
2023-02-05T22:11:38.579Z,101486.86
2023-02-05T22:14:06.975Z,101491.71
2023-02-05T22:16:35.133Z,101489.66
2023-02-05T22:19:04.680Z,101487.23
2023-02-05T22:21:38.404Z,101484.48
2023-02-05T22:24:06.649Z,101485.88
2023-02-05T22:26:36.728Z,101485.88
2023-02-05T22:29:06.385Z,101488.13
2023-02-05T22:31:35.222Z,101491.91
2023-02-05T22:34:03.503Z,101494.16
2023-02-05T22:36:34.107Z,101498.48
2023-02-05T22:39:02.143Z,101501.41
2023-02-05T22:41:32.277Z,101499.67
2023-02-05T22:44:00.598Z,101502.09
2023-02-05T22:46:29.668Z,101504.52
2023-02-05T22:48:58.480Z,101515.79
2023-02-05T22:51:33.948Z,101513.53
2023-02-05T22:54:02.157Z,101517.36
2023-02-05T22:56:30.712Z,101515.98
2023-02-05T22:59:00.244Z,101518.92
2023-02-05T23:01:32.719Z,101517.54
2023-02-05T23:04:01.452Z,101514.93
2023-02-05T23:06:34.757Z,101516.65
2023-02-05T23:09:06.583Z,101516.30
2023-02-05T23:11:34.564Z,101512.65
2023-02-05T23:14:03.481Z,101522.85
2023-02-05T23:16:33.948Z,101525.80
2023-02-05T23:19:04.358Z,101529.08
2023-02-05T23:21:33.732Z,101530.48
2023-02-05T23:24:02.792Z,101533.95
2023-02-05T23:26:32.446Z,101539.84
2023-02-05T23:29:00.550Z,101540.20
2023-02-05T23:31:28.608Z,101540.55
2023-02-05T23:33:56.767Z,101546.95
2023-02-05T23:36:24.632Z,101544.70
2023-02-05T23:38:52.531Z,101545.04
2023-02-05T23:41:35.868Z,101547.80
2023-02-05T23:44:23.036Z,101548.48
2023-02-05T23:46:51.056Z,101552.65
2023-02-05T23:49:23.272Z,101548.99
2023-02-05T23:51:53.800Z,101549.52
2023-02-05T23:54:22.041Z,101552.30
2023-02-05T23:56:50.017Z,101554.89
2023-02-05T23:59:18.051Z,101555.25
